Marsing, Idaho
Current Conditions -  °F | °C
As of 3:35 AM on Saturday 25 Oct 2014 (Local Time) from KEUL Reporting Station
Overcast Overcast  
Wind Chill: 43°   Ceiling: 200
Heat Index: 43°   Visibility: 0.25mi
Dew Point: 34°   Wind: 0mph
Humidity: 70%   Direction: NA
Pressure: 29.91"   Gusts: NA
Location:  43.55°N, 116.81°W
Report Text: KEUL 250935Z AUTO 00000KT 1/4SM OVC002 06/01 A2991 RMK AO1
Loading
Personal Weather Stations






























Interactive Weather Map
Tropical Storm Tracking
New forecast layout! Learn more

10-Day Weather Forecast

Advertisements
Track Severe Weather on mobile